sensor_id;sensor_type;location;lat;lon;timestamp;pressure;altitude;pressure_sealevel;temperature;humidity
21504;BME280;10913;51.992;9.228;2023-04-08T00:02:18;100882.28;;;8.14;76.26
21504;BME280;10913;51.992;9.228;2023-04-08T00:04:44;100891.94;;;8.17;76.24
21504;BME280;10913;51.992;9.228;2023-04-08T00:07:09;100893.69;;;8.16;76.72
21504;BME280;10913;51.992;9.228;2023-04-08T00:09:35;100895.47;;;8.17;77.03
21504;BME280;10913;51.992;9.228;2023-04-08T00:12:00;100896.34;;;8.18;77.34
21504;BME280;10913;51.992;9.228;2023-04-08T00:14:26;100891.03;;;8.15;77.72
21504;BME280;10913;51.992;9.228;2023-04-08T00:16:52;100898.03;;;8.13;77.58
21504;BME280;10913;51.992;9.228;2023-04-08T00:19:17;100891.00;;;8.12;77.85
21504;BME280;10913;51.992;9.228;2023-04-08T00:21:42;100892.78;;;8.13;77.56
21504;BME280;10913;51.992;9.228;2023-04-08T00:24:08;100894.56;;;8.15;77.52
21504;BME280;10913;51.992;9.228;2023-04-08T00:26:33;100894.59;;;8.20;77.50
21504;BME280;10913;51.992;9.228;2023-04-08T00:28:59;100897.25;;;8.21;77.76
21504;BME280;10913;51.992;9.228;2023-04-08T00:31:24;100898.19;;;8.25;77.79
21504;BME280;10913;51.992;9.228;2023-04-08T00:33:49;100893.81;;;8.27;78.06
21504;BME280;10913;51.992;9.228;2023-04-08T00:36:15;100893.78;;;8.25;79.13
21504;BME280;10913;51.992;9.228;2023-04-08T00:38:40;100891.13;;;8.22;79.93
21504;BME280;10913;51.992;9.228;2023-04-08T00:41:06;100891.97;;;8.18;80.44
21504;BME280;10913;51.992;9.228;2023-04-08T00:43:31;100900.75;;;8.20;80.37
21504;BME280;10913;51.992;9.228;2023-04-08T00:45:56;100899.84;;;8.20;80.50
21504;BME280;10913;51.992;9.228;2023-04-08T00:48:22;100895.47;;;8.17;80.51
21504;BME280;10913;51.992;9.228;2023-04-08T00:50:47;100893.69;;;8.16;80.65
21504;BME280;10913;51.992;9.228;2023-04-08T00:53:17;100891.06;;;8.16;80.96
21504;BME280;10913;51.992;9.228;2023-04-08T00:55:43;100890.16;;;8.14;81.36
21504;BME280;10913;51.992;9.228;2023-04-08T00:58:09;100887.56;;;8.16;81.48
21504;BME280;10913;51.992;9.228;2023-04-08T01:00:35;100894.59;;;8.20;81.45
21504;BME280;10913;51.992;9.228;2023-04-08T01:04:06;100891.09;;;8.21;81.08
21504;BME280;10913;51.992;9.228;2023-04-08T01:08:37;100889.31;;;8.17;82.68
21504;BME280;10913;51.992;9.228;2023-04-08T01:11:09;100884.91;;;8.16;82.75
21504;BME280;10913;51.992;9.228;2023-04-08T01:13:37;100883.16;;;8.16;82.80
21504;BME280;10913;51.992;9.228;2023-04-08T01:16:04;100879.69;;;8.19;82.75
21504;BME280;10913;51.992;9.228;2023-04-08T01:18:32;100887.59;;;8.22;82.56
21504;BME280;10913;51.992;9.228;2023-04-08T01:21:00;100891.19;;;8.27;82.21
21504;BME280;10913;51.992;9.228;2023-04-08T01:26:12;100886.03;;;8.33;82.30
21504;BME280;10913;51.992;9.228;2023-04-08T01:28:48;100887.81;;;8.34;82.44
21504;BME280;10913;51.992;9.228;2023-04-08T01:31:15;100890.47;;;8.36;82.51
21504;BME280;10913;51.992;9.228;2023-04-08T01:33:41;100887.84;;;8.37;82.33
21504;BME280;10913;51.992;9.228;2023-04-08T01:36:08;100887.81;;;8.36;82.70
21504;BME280;10913;51.992;9.228;2023-04-08T01:38:38;100884.31;;;8.35;82.66
21504;BME280;10913;51.992;9.228;2023-04-08T01:41:04;100882.59;;;8.37;82.78
21504;BME280;10913;51.992;9.228;2023-04-08T01:43:32;100880.84;;;8.38;82.68
21504;BME280;10913;51.992;9.228;2023-04-08T01:45:59;100878.19;;;8.38;82.67
21504;BME280;10913;51.992;9.228;2023-04-08T01:48:26;100884.34;;;8.38;82.62
21504;BME280;10913;51.992;9.228;2023-04-08T01:50:53;100886.06;;;8.36;83.10
21504;BME280;10913;51.992;9.228;2023-04-08T01:53:20;100889.59;;;8.37;83.66
21504;BME280;10913;51.992;9.228;2023-04-08T01:55:45;100883.44;;;8.36;83.44
21504;BME280;10913;51.992;9.228;2023-04-08T01:58:17;100884.31;;;8.37;83.27
21504;BME280;10913;51.992;9.228;2023-04-08T02:00:44;100879.06;;;8.37;83.06
21504;BME280;10913;51.992;9.228;2023-04-08T02:03:11;100881.69;;;8.40;82.45
21504;BME280;10913;51.992;9.228;2023-04-08T02:05:38;100886.13;;;8.39;83.00
21504;BME280;10913;51.992;9.228;2023-04-08T02:08:04;100881.69;;;8.40;83.25
21504;BME280;10913;51.992;9.228;2023-04-08T02:10:29;100893.13;;;8.37;83.80
21504;BME280;10913;51.992;9.228;2023-04-08T02:12:55;100899.22;;;8.35;84.32
21504;BME280;10913;51.992;9.228;2023-04-08T02:15:21;100900.94;;;8.33;84.78
21504;BME280;10913;51.992;9.228;2023-04-08T02:17:49;100900.00;;;8.29;85.09
21504;BME280;10913;51.992;9.228;2023-04-08T02:20:36;100905.22;;;8.26;85.52
21504;BME280;10913;51.992;9.228;2023-04-08T02:23:06;100900.81;;;8.25;85.41
21504;BME280;10913;51.992;9.228;2023-04-08T02:25:35;100889.38;;;8.23;85.65
21504;BME280;10913;51.992;9.228;2023-04-08T02:28:07;100894.63;;;8.23;85.64
21504;BME280;10913;51.992;9.228;2023-04-08T02:30:34;100902.56;;;8.24;86.39
21504;BME280;10913;51.992;9.228;2023-04-08T02:33:03;100896.41;;;8.24;86.16
21504;BME280;10913;51.992;9.228;2023-04-08T02:35:29;100895.53;;;8.23;86.49
21504;BME280;10913;51.992;9.228;2023-04-08T02:37:55;100896.41;;;8.24;86.32
21504;BME280;10913;51.992;9.228;2023-04-08T02:40:25;100899.94;;;8.26;86.34
21504;BME280;10913;51.992;9.228;2023-04-08T02:42:51;100892.91;;;8.25;86.47
21504;BME280;10913;51.992;9.228;2023-04-08T02:45:17;100895.56;;;8.26;86.45
21504;BME280;10913;51.992;9.228;2023-04-08T02:47:43;100907.88;;;8.27;86.63
21504;BME280;10913;51.992;9.228;2023-04-08T02:50:09;100902.56;;;8.26;87.24
21504;BME280;10913;51.992;9.228;2023-04-08T02:52:35;100908.69;;;8.25;87.33
21504;BME280;10913;51.992;9.228;2023-04-08T02:55:00;100919.22;;;8.25;87.27
21504;BME280;10913;51.992;9.228;2023-04-08T02:57:25;100907.78;;;8.23;87.36
21504;BME280;10913;51.992;9.228;2023-04-08T02:59:50;100926.22;;;8.23;87.28
21504;BME280;10913;51.992;9.228;2023-04-08T03:02:16;100920.06;;;8.21;87.15
21504;BME280;10913;51.992;9.228;2023-04-08T03:04:41;100919.19;;;8.22;86.95
21504;BME280;10913;51.992;9.228;2023-04-08T03:07:06;100919.16;;;8.17;87.30
21504;BME280;10913;51.992;9.228;2023-04-08T03:09:32;100918.28;;;8.18;87.45
21504;BME280;10913;51.992;9.228;2023-04-08T03:11:57;100919.13;;;8.16;87.47
21504;BME280;10913;51.992;9.228;2023-04-08T03:14:22;100927.06;;;8.17;87.16
21504;BME280;10913;51.992;9.228;2023-04-08T03:16:48;100920.88;;;8.15;87.44
21504;BME280;10913;51.992;9.228;2023-04-08T03:19:13;100929.66;;;8.16;88.08
21504;BME280;10913;51.992;9.228;2023-04-08T03:21:39;100918.22;;;8.14;87.91
21504;BME280;10913;51.992;9.228;2023-04-08T03:24:04;100919.09;;;8.13;88.40
21504;BME280;10913;51.992;9.228;2023-04-08T03:26:29;100925.22;;;8.13;87.89
21504;BME280;10913;51.992;9.228;2023-04-08T03:28:55;100913.81;;;8.13;88.23
21504;BME280;10913;51.992;9.228;2023-04-08T03:31:20;100925.22;;;8.12;88.18
21504;BME280;10913;51.992;9.228;2023-04-08T03:33:46;100916.44;;;8.11;87.84
21504;BME280;10913;51.992;9.228;2023-04-08T03:36:11;100918.16;;;8.09;88.15
21504;BME280;10913;51.992;9.228;2023-04-08T03:38:36;100920.78;;;8.08;88.26
21504;BME280;10913;51.992;9.228;2023-04-08T03:41:02;100925.97;;;8.03;88.17
21504;BME280;10913;51.992;9.228;2023-04-08T03:43:27;100924.16;;;8.01;88.52
21504;BME280;10913;51.992;9.228;2023-04-08T03:45:52;100924.16;;;8.01;88.34
21504;BME280;10913;51.992;9.228;2023-04-08T03:48:18;100929.44;;;8.01;88.92
21504;BME280;10913;51.992;9.228;2023-04-08T03:50:43;100926.81;;;8.01;88.46
21504;BME280;10913;51.992;9.228;2023-04-08T03:53:09;100932.91;;;8.00;88.61
21504;BME280;10913;51.992;9.228;2023-04-08T03:55:36;100928.59;;;8.03;88.32
21504;BME280;10913;51.992;9.228;2023-04-08T03:58:01;100926.84;;;8.04;88.29
21504;BME280;10913;51.992;9.228;2023-04-08T04:00:27;100929.47;;;8.04;88.04
21504;BME280;10913;51.992;9.228;2023-04-08T04:02:52;100922.44;;;8.03;87.96
21504;BME280;10913;51.992;9.228;2023-04-08T04:05:19;100924.19;;;8.02;88.33
21504;BME280;10913;51.992;9.228;2023-04-08T04:07:44;100922.41;;;8.01;88.54
21504;BME280;10913;51.992;9.228;2023-04-08T04:10:10;100926.81;;;8.01;88.82
21504;BME280;10913;51.992;9.228;2023-04-08T04:12:36;100927.66;;;8.00;88.43
21504;BME280;10913;51.992;9.228;2023-04-08T04:15:01;100927.66;;;8.00;88.74
21504;BME280;10913;51.992;9.228;2023-04-08T04:17:26;100932.91;;;8.00;89.32
21504;BME280;10913;51.992;9.228;2023-04-08T04:19:52;100932.06;;;7.99;89.37
21504;BME280;10913;51.992;9.228;2023-04-08T04:22:17;100933.81;;;8.00;89.08
21504;BME280;10913;51.992;9.228;2023-04-08T04:24:49;100937.31;;;8.01;89.51
21504;BME280;10913;51.992;9.228;2023-04-08T04:27:15;100939.94;;;8.01;89.43
21504;BME280;10913;51.992;9.228;2023-04-08T04:29:42;100933.84;;;8.03;88.86
21504;BME280;10913;51.992;9.228;2023-04-08T04:32:07;100943.56;;;8.07;88.74
21504;BME280;10913;51.992;9.228;2023-04-08T04:34:33;100947.09;;;8.08;88.92
21504;BME280;10913;51.992;9.228;2023-04-08T04:36:58;100950.56;;;8.07;89.66
21504;BME280;10913;51.992;9.228;2023-04-08T04:39:23;100947.03;;;8.05;90.48
21504;BME280;10913;51.992;9.228;2023-04-08T04:41:49;100954.84;;;8.00;90.63
21504;BME280;10913;51.992;9.228;2023-04-08T04:44:15;100959.22;;;7.97;91.08
21504;BME280;10913;51.992;9.228;2023-04-08T04:46:40;100962.66;;;7.92;91.87
21504;BME280;10913;51.992;9.228;2023-04-08T04:49:06;100964.31;;;7.86;93.07
21504;BME280;10913;51.992;9.228;2023-04-08T04:51:31;100971.25;;;7.79;93.37
21504;BME280;10913;51.992;9.228;2023-04-08T04:54:00;100960.66;;;7.76;92.86
21504;BME280;10913;51.992;9.228;2023-04-08T04:56:25;100957.19;;;7.77;92.59
21504;BME280;10913;51.992;9.228;2023-04-08T04:58:51;100959.81;;;7.77;92.83
21504;BME280;10913;51.992;9.228;2023-04-08T05:01:16;100965.97;;;7.79;92.32
21504;BME280;10913;51.992;9.228;2023-04-08T05:03:42;100964.22;;;7.81;92.11
21504;BME280;10913;51.992;9.228;2023-04-08T05:06:07;100959.91;;;7.85;91.76
21504;BME280;10913;51.992;9.228;2023-04-08T05:08:32;100966.97;;;7.87;91.91
21504;BME280;10913;51.992;9.228;2023-04-08T05:10:58;100960.84;;;7.88;91.75
21504;BME280;10913;51.992;9.228;2023-04-08T05:13:29;100961.72;;;7.89;91.38
21504;BME280;10913;51.992;9.228;2023-04-08T05:15:54;100959.13;;;7.90;91.05
21504;BME280;10913;51.992;9.228;2023-04-08T05:18:19;100962.66;;;7.92;91.18
21504;BME280;10913;51.992;9.228;2023-04-08T05:20:45;100967.09;;;7.97;90.62
21504;BME280;10913;51.992;9.228;2023-04-08T05:23:11;100973.28;;;7.99;90.80
21504;BME280;10913;51.992;9.228;2023-04-08T05:25:36;100966.28;;;7.99;90.40
21504;BME280;10913;51.992;9.228;2023-04-08T05:28:02;100968.91;;;8.01;90.68
21504;BME280;10913;51.992;9.228;2023-04-08T05:30:27;100975.03;;;8.00;90.72
21504;BME280;10913;51.992;9.228;2023-04-08T05:32:53;100980.28;;;8.00;91.02
21504;BME280;10913;51.992;9.228;2023-04-08T05:35:18;100986.44;;;8.00;91.58
21504;BME280;10913;51.992;9.228;2023-04-08T05:37:43;100981.19;;;7.99;91.30
21504;BME280;10913;51.992;9.228;2023-04-08T05:40:09;100986.41;;;7.97;91.05
21504;BME280;10913;51.992;9.228;2023-04-08T05:42:35;100995.13;;;7.93;91.42
21504;BME280;10913;51.992;9.228;2023-04-08T05:45:00;100989.81;;;7.91;91.41
21504;BME280;10913;51.992;9.228;2023-04-08T05:47:25;100995.13;;;7.93;91.18
21504;BME280;10913;51.992;9.228;2023-04-08T05:49:51;100997.78;;;7.94;91.35
21504;BME280;10913;51.992;9.228;2023-04-08T05:52:17;100999.50;;;7.92;91.33
21504;BME280;10913;51.992;9.228;2023-04-08T05:54:42;101001.25;;;7.92;91.80
21504;BME280;10913;51.992;9.228;2023-04-08T05:57:08;100993.31;;;7.90;92.12
21504;BME280;10913;51.992;9.228;2023-04-08T05:59:34;100993.31;;;7.90;91.74
21504;BME280;10913;51.992;9.228;2023-04-08T06:02:00;100988.94;;;7.91;90.93
21504;BME280;10913;51.992;9.228;2023-04-08T06:04:25;101004.75;;;7.92;90.75
21504;BME280;10913;51.992;9.228;2023-04-08T06:06:50;101016.19;;;7.94;90.92
21504;BME280;10913;51.992;9.228;2023-04-08T06:09:16;101016.09;;;7.90;91.90
21504;BME280;10913;51.992;9.228;2023-04-08T06:11:41;101018.78;;;7.91;91.80
21504;BME280;10913;51.992;9.228;2023-04-08T06:14:07;101025.75;;;7.89;91.88
21504;BME280;10913;51.992;9.228;2023-04-08T06:16:32;101017.84;;;7.89;92.24
21504;BME280;10913;51.992;9.228;2023-04-08T06:18:57;101028.38;;;7.89;92.27
21504;BME280;10913;51.992;9.228;2023-04-08T06:21:23;101023.97;;;7.88;91.87
21504;BME280;10913;51.992;9.228;2023-04-08T06:23:48;101029.25;;;7.88;92.00
21504;BME280;10913;51.992;9.228;2023-04-08T06:26:14;101030.03;;;7.84;93.24
21504;BME280;10913;51.992;9.228;2023-04-08T06:28:40;101035.25;;;7.81;92.82
21504;BME280;10913;51.992;9.228;2023-04-08T06:31:05;101029.13;;;7.82;92.54
21504;BME280;10913;51.992;9.228;2023-04-08T06:33:31;101038.00;;;7.87;92.30
21504;BME280;10913;51.992;9.228;2023-04-08T06:36:06;101040.69;;;7.92;91.98
21504;BME280;10913;51.992;9.228;2023-04-08T06:38:32;101038.91;;;7.89;92.46
21504;BME280;10913;51.992;9.228;2023-04-08T06:41:16;101039.81;;;7.91;92.27
21504;BME280;10913;51.992;9.228;2023-04-08T06:43:43;101040.66;;;7.90;92.69
21504;BME280;10913;51.992;9.228;2023-04-08T06:46:09;101048.63;;;7.93;92.57
21504;BME280;10913;51.992;9.228;2023-04-08T06:48:34;101046.91;;;7.95;92.89
21504;BME280;10913;51.992;9.228;2023-04-08T06:51:01;101043.28;;;7.89;93.45
21504;BME280;10913;51.992;9.228;2023-04-08T06:53:27;101052.91;;;7.88;92.84
21504;BME280;10913;51.992;9.228;2023-04-08T06:55:57;101054.66;;;7.88;93.06
21504;BME280;10913;51.992;9.228;2023-04-08T06:58:22;101050.34;;;7.91;92.03
21504;BME280;10913;51.992;9.228;2023-04-08T07:00:48;101058.31;;;7.96;92.01
21504;BME280;10913;51.992;9.228;2023-04-08T07:03:13;101056.56;;;7.97;92.66
21504;BME280;10913;51.992;9.228;2023-04-08T07:05:38;101060.09;;;7.99;92.58
21504;BME280;10913;51.992;9.228;2023-04-08T07:08:05;101061.91;;;8.03;92.68
21504;BME280;10913;51.992;9.228;2023-04-08T07:10:30;101068.06;;;8.05;92.16
21504;BME280;10913;51.992;9.228;2023-04-08T07:12:56;101074.19;;;8.04;93.25
21504;BME280;10913;51.992;9.228;2023-04-08T07:15:21;101075.88;;;8.00;93.71
21504;BME280;10913;51.992;9.228;2023-04-08T07:17:47;101077.66;;;7.98;94.71
21504;BME280;10913;51.992;9.228;2023-04-08T07:20:15;101066.94;;;7.89;95.21
21504;BME280;10913;51.992;9.228;2023-04-08T07:22:40;101073.03;;;7.86;94.74
21504;BME280;10913;51.992;9.228;2023-04-08T07:25:06;101083.63;;;7.89;94.72
21504;BME280;10913;51.992;9.228;2023-04-08T07:27:34;101082.78;;;7.90;94.43
21504;BME280;10913;51.992;9.228;2023-04-08T07:30:00;101086.34;;;7.94;95.20
21504;BME280;10913;51.992;9.228;2023-04-08T07:32:26;101078.47;;;7.95;95.09
21504;BME280;10913;51.992;9.228;2023-04-08T07:34:52;101077.66;;;8.01;94.51
21504;BME280;10913;51.992;9.228;2023-04-08T07:37:17;101087.38;;;8.05;94.01
21504;BME280;10913;51.992;9.228;2023-04-08T07:39:43;101087.47;;;8.10;94.95
21504;BME280;10913;51.992;9.228;2023-04-08T07:42:08;101090.91;;;8.06;94.87
21504;BME280;10913;51.992;9.228;2023-04-08T07:44:34;101094.41;;;8.05;94.44
21504;BME280;10913;51.992;9.228;2023-04-08T07:46:59;101091.78;;;8.06;94.60
21504;BME280;10913;51.992;9.228;2023-04-08T07:49:25;101092.69;;;8.08;94.55
21504;BME280;10913;51.992;9.228;2023-04-08T07:51:50;101098.81;;;8.07;94.60
21504;BME280;10913;51.992;9.228;2023-04-08T07:54:16;101099.66;;;8.05;94.58
21504;BME280;10913;51.992;9.228;2023-04-08T07:56:42;101103.25;;;8.10;94.37
21504;BME280;10913;51.992;9.228;2023-04-08T07:59:09;101098.97;;;8.16;93.92
21504;BME280;10913;51.992;9.228;2023-04-08T08:01:36;101097.31;;;8.23;93.70
21504;BME280;10913;51.992;9.228;2023-04-08T08:04:02;101107.09;;;8.30;93.38
21504;BME280;10913;51.992;9.228;2023-04-08T08:06:28;101106.28;;;8.33;93.67
21504;BME280;10913;51.992;9.228;2023-04-08T08:08:53;101105.47;;;8.35;93.71
21504;BME280;10913;51.992;9.228;2023-04-08T08:11:19;101106.38;;;8.37;93.53
21504;BME280;10913;51.992;9.228;2023-04-08T08:13:45;101109.84;;;8.35;93.82
21504;BME280;10913;51.992;9.228;2023-04-08T08:16:11;101113.19;;;8.27;93.26
21504;BME280;10913;51.992;9.228;2023-04-08T08:18:37;101114.94;;;8.27;93.36
21504;BME280;10913;51.992;9.228;2023-04-08T08:21:04;101111.47;;;8.29;93.49
21504;BME280;10913;51.992;9.228;2023-04-08T08:23:30;101108.94;;;8.34;93.73
21504;BME280;10913;51.992;9.228;2023-04-08T08:26:05;101109.97;;;8.44;93.69
21504;BME280;10913;51.992;9.228;2023-04-08T08:28:31;101107.34;;;8.45;93.27
21504;BME280;10913;51.992;9.228;2023-04-08T08:30:57;101117.97;;;8.50;92.43
21504;BME280;10913;51.992;9.228;2023-04-08T08:33:26;101113.59;;;8.52;92.52
21504;BME280;10913;51.992;9.228;2023-04-08T08:35:52;101123.25;;;8.51;92.74
21504;BME280;10913;51.992;9.228;2023-04-08T08:38:17;101116.31;;;8.56;92.11
21504;BME280;10913;51.992;9.228;2023-04-08T08:40:44;101123.38;;;8.62;92.05
21504;BME280;10913;51.992;9.228;2023-04-08T08:43:10;101126.97;;;8.66;92.46
21504;BME280;10913;51.992;9.228;2023-04-08T08:45:42;101129.59;;;8.66;91.06
21504;BME280;10913;51.992;9.228;2023-04-08T08:48:07;101130.50;;;8.68;92.19
21504;BME280;10913;51.992;9.228;2023-04-08T08:50:34;101133.13;;;8.68;92.59
21504;BME280;10913;51.992;9.228;2023-04-08T08:52:59;101133.94;;;8.63;93.18
21504;BME280;10913;51.992;9.228;2023-04-08T08:55:25;101137.50;;;8.66;93.07
21504;BME280;10913;51.992;9.228;2023-04-08T08:57:50;101137.53;;;8.69;92.86
21504;BME280;10913;51.992;9.228;2023-04-08T09:00:16;101139.31;;;8.70;92.69
21504;BME280;10913;51.992;9.228;2023-04-08T09:02:42;101138.34;;;8.63;93.86
21504;BME280;10913;51.992;9.228;2023-04-08T09:05:08;101141.81;;;8.62;93.84
21504;BME280;10913;51.992;9.228;2023-04-08T09:07:37;101140.97;;;8.63;92.89
21504;BME280;10913;51.992;9.228;2023-04-08T09:10:07;101144.47;;;8.63;93.50
21504;BME280;10913;51.992;9.228;2023-04-08T09:12:32;101144.53;;;8.67;92.14
21504;BME280;10913;51.992;9.228;2023-04-08T09:15:08;101143.72;;;8.71;93.42
21504;BME280;10913;51.992;9.228;2023-04-08T09:17:35;101141.09;;;8.71;93.83
21504;BME280;10913;51.992;9.228;2023-04-08T09:20:05;101147.28;;;8.74;93.43
21504;BME280;10913;51.992;9.228;2023-04-08T09:22:34;101154.38;;;8.78;93.55
21504;BME280;10913;51.992;9.228;2023-04-08T09:25:32;101168.50;;;8.85;93.37
21504;BME280;10913;51.992;9.228;2023-04-08T09:27:58;101172.81;;;8.80;94.24
21504;BME280;10913;51.992;9.228;2023-04-08T09:30:25;101165.88;;;8.85;93.51
21504;BME280;10913;51.992;9.228;2023-04-08T09:32:54;101172.09;;;8.90;92.96
21504;BME280;10913;51.992;9.228;2023-04-08T09:35:20;101166.94;;;8.96;92.63
21504;BME280;10913;51.992;9.228;2023-04-08T09:37:46;101173.09;;;8.99;92.58
21504;BME280;10913;51.992;9.228;2023-04-08T09:40:12;101174.03;;;9.03;92.28
21504;BME280;10913;51.992;9.228;2023-04-08T09:42:44;101182.84;;;9.05;92.36
21504;BME280;10913;51.992;9.228;2023-04-08T09:45:13;101178.50;;;9.09;92.01
21504;BME280;10913;51.992;9.228;2023-04-08T09:47:56;101182.03;;;9.09;92.19
21504;BME280;10913;51.992;9.228;2023-04-08T09:50:31;101173.25;;;9.10;92.23
21504;BME280;10913;51.992;9.228;2023-04-08T09:53:11;101181.97;;;9.05;92.89
21504;BME280;10913;51.992;9.228;2023-04-08T09:55:41;101181.06;;;9.04;93.16
21504;BME280;10913;51.992;9.228;2023-04-08T09:58:14;101180.19;;;9.04;93.31
21504;BME280;10913;51.992;9.228;2023-04-08T10:00:46;101176.72;;;9.06;93.33
21504;BME280;10913;51.992;9.228;2023-04-08T10:03:34;101187.25;;;9.06;92.53
21504;BME280;10913;51.992;9.228;2023-04-08T10:06:02;101185.56;;;9.11;92.65
21504;BME280;10913;51.992;9.228;2023-04-08T10:08:30;101184.72;;;9.12;93.06
21504;BME280;10913;51.992;9.228;2023-04-08T10:10:57;101184.75;;;9.15;92.98
21504;BME280;10913;51.992;9.228;2023-04-08T10:13:23;101186.56;;;9.21;93.03
21504;BME280;10913;51.992;9.228;2023-04-08T10:15:49;101187.44;;;9.21;92.92
21504;BME280;10913;51.992;9.228;2023-04-08T10:20:47;101186.53;;;9.19;93.34
21504;BME280;10913;51.992;9.228;2023-04-08T10:23:17;101183.91;;;9.16;93.13
21504;BME280;10913;51.992;9.228;2023-04-08T10:25:44;101187.44;;;9.18;93.09
21504;BME280;10913;51.992;9.228;2023-04-08T10:35:42;101187.44;;;9.21;93.85
21504;BME280;10913;51.992;9.228;2023-04-08T10:38:08;101194.56;;;9.27;93.42
21504;BME280;10913;51.992;9.228;2023-04-08T10:40:38;101190.25;;;9.32;93.25
21504;BME280;10913;51.992;9.228;2023-04-08T10:43:05;101192.94;;;9.35;93.20
21504;BME280;10913;51.992;9.228;2023-04-08T10:45:31;101194.72;;;9.38;92.91
21504;BME280;10913;51.992;9.228;2023-04-08T10:48:22;101196.50;;;9.39;92.82
21504;BME280;10913;51.992;9.228;2023-04-08T10:51:04;101196.50;;;9.42;91.94
21504;BME280;10913;51.992;9.228;2023-04-08T10:53:31;101192.13;;;9.44;92.20
21504;BME280;10913;51.992;9.228;2023-04-08T10:56:11;101190.41;;;9.46;91.92
21504;BME280;10913;51.992;9.228;2023-04-08T10:58:52;101189.50;;;9.44;92.56
21504;BME280;10913;51.992;9.228;2023-04-08T11:01:19;101195.66;;;9.44;92.48
21504;BME280;10913;51.992;9.228;2023-04-08T11:03:45;101189.50;;;9.44;92.44
21504;BME280;10913;51.992;9.228;2023-04-08T11:06:10;101188.69;;;9.49;92.21
21504;BME280;10913;51.992;9.228;2023-04-08T11:08:36;101188.75;;;9.54;92.12
21504;BME280;10913;51.992;9.228;2023-04-08T11:11:03;101185.28;;;9.59;91.91
21504;BME280;10913;51.992;9.228;2023-04-08T11:13:33;101188.88;;;9.64;91.71
21504;BME280;10913;51.992;9.228;2023-04-08T11:16:01;101182.78;;;9.70;92.19
21504;BME280;10913;51.992;9.228;2023-04-08T11:18:29;101184.63;;;9.80;91.85
21504;BME280;10913;51.992;9.228;2023-04-08T11:20:56;101178.59;;;9.90;90.57
21504;BME280;10913;51.992;9.228;2023-04-08T11:23:24;101183.03;;;9.94;91.10
21504;BME280;10913;51.992;9.228;2023-04-08T11:25:49;101191.81;;;9.92;90.91
21504;BME280;10913;51.992;9.228;2023-04-08T11:28:15;101183.06;;;9.96;90.91
21504;BME280;10913;51.992;9.228;2023-04-08T11:30:42;101190.16;;;10.05;90.87
21504;BME280;10913;51.992;9.228;2023-04-08T11:33:08;101194.63;;;10.10;90.60
21504;BME280;10913;51.992;9.228;2023-04-08T11:35:34;101191.97;;;10.09;90.72
21504;BME280;10913;51.992;9.228;2023-04-08T11:38:03;101192.03;;;10.15;90.61
21504;BME280;10913;51.992;9.228;2023-04-08T11:40:29;101196.50;;;10.20;90.41
21504;BME280;10913;51.992;9.228;2023-04-08T11:42:54;101187.75;;;10.24;90.24
21504;BME280;10913;51.992;9.228;2023-04-08T11:45:20;101190.41;;;10.26;89.99
21504;BME280;10913;51.992;9.228;2023-04-08T11:47:46;101194.84;;;10.28;89.86
21504;BME280;10913;51.992;9.228;2023-04-08T11:50:21;101200.06;;;10.22;90.46
21504;BME280;10913;51.992;9.228;2023-04-08T11:52:51;101194.69;;;10.16;90.10
21504;BME280;10913;51.992;9.228;2023-04-08T11:55:27;101201.72;;;10.14;90.12
21504;BME280;10913;51.992;9.228;2023-04-08T11:57:54;101200.88;;;10.17;90.46
21504;BME280;10913;51.992;9.228;2023-04-08T12:00:21;101206.09;;;10.11;91.02
21504;BME280;10913;51.992;9.228;2023-04-08T12:02:51;101211.25;;;10.01;90.63
21504;BME280;10913;51.992;9.228;2023-04-08T12:05:20;101205.94;;;9.97;90.66
21504;BME280;10913;51.992;9.228;2023-04-08T12:07:45;101213.88;;;9.98;90.91
21504;BME280;10913;51.992;9.228;2023-04-08T12:10:11;101211.25;;;9.98;90.93
21504;BME280;10913;51.992;9.228;2023-04-08T12:12:38;101210.38;;;10.01;90.70
21504;BME280;10913;51.992;9.228;2023-04-08T12:15:04;101211.25;;;10.01;90.98
21504;BME280;10913;51.992;9.228;2023-04-08T12:17:30;101207.75;;;10.02;90.84
21504;BME280;10913;51.992;9.228;2023-04-08T12:19:55;101218.28;;;10.01;90.71
21504;BME280;10913;51.992;9.228;2023-04-08T12:22:21;101216.53;;;10.01;90.32
21504;BME280;10913;51.992;9.228;2023-04-08T12:24:47;101224.44;;;10.01;90.44
21504;BME280;10913;51.992;9.228;2023-04-08T12:27:12;101225.31;;;10.00;90.89
21504;BME280;10913;51.992;9.228;2023-04-08T12:29:37;101218.25;;;9.96;90.84
21504;BME280;10913;51.992;9.228;2023-04-08T12:32:03;101223.50;;;9.93;91.00
21504;BME280;10913;51.992;9.228;2023-04-08T12:34:30;101219.13;;;9.95;90.86
21504;BME280;10913;51.992;9.228;2023-04-08T12:36:55;101212.91;;;9.89;91.61
21504;BME280;10913;51.992;9.228;2023-04-08T12:39:27;101222.56;;;9.88;91.31
21504;BME280;10913;51.992;9.228;2023-04-08T12:41:52;101220.81;;;9.89;90.92
21504;BME280;10913;51.992;9.228;2023-04-08T12:44:18;101221.69;;;9.89;91.32
21504;BME280;10913;51.992;9.228;2023-04-08T12:46:43;101218.22;;;9.92;91.42
21504;BME280;10913;51.992;9.228;2023-04-08T12:49:08;101217.31;;;9.90;91.69
21504;BME280;10913;51.992;9.228;2023-04-08T12:51:34;101215.56;;;9.90;91.54
21504;BME280;10913;51.992;9.228;2023-04-08T12:54:01;101218.19;;;9.90;91.56
21504;BME280;10913;51.992;9.228;2023-04-08T12:56:28;101218.19;;;9.90;91.61
21504;BME280;10913;51.992;9.228;2023-04-08T12:58:53;101213.84;;;9.94;91.92
21504;BME280;10913;51.992;9.228;2023-04-08T13:01:20;101207.72;;;10.01;91.16
21504;BME280;10913;51.992;9.228;2023-04-08T13:03:45;101204.31;;;10.10;91.05
21504;BME280;10913;51.992;9.228;2023-04-08T13:06:12;101204.44;;;10.19;91.14
21504;BME280;10913;51.992;9.228;2023-04-08T13:08:37;101191.31;;;10.29;90.51
21504;BME280;10913;51.992;9.228;2023-04-08T13:11:02;101201.97;;;10.40;89.52
21504;BME280;10913;51.992;9.228;2023-04-08T13:13:28;101205.50;;;10.42;89.08
21504;BME280;10913;51.992;9.228;2023-04-08T13:15:54;101202.91;;;10.47;89.41